Terminal Aerodrome Forecast
Issued by NWS

Home | Current Version | Previous Version | Graphics & Text | Print | Product List | Glossary On
Versions: 1 2 3 4 5 6 7 8 9 10 11 12 13 14 15 16 17 18 19 20 21 22 23 24 25 26 27 28
649
FTUS45 KGGW 192340
TAFOLF
TAF
KOLF 192340Z 2000/2024 09014KT P6SM BKN110
     FM201000 07006KT P6SM BKN040
     FM201100 07006KT 5SM BR BKN023
     FM201500 08007KT P6SM BKN022
     FM201600 09008KT P6SM SCT025=

USA.gov is the U.S. government's official web portal to all federal, state and local government web resources and services.